sensor_id;sensor_type;location;lat;lon;timestamp;P1;durP1;ratioP1;P2;durP2;ratioP2
1799;SDS011;919;48.274;12.292;2023-07-20T00:00:40;3.73;;;2.60;;
1799;SDS011;919;48.274;12.292;2023-07-20T00:03:10;3.80;;;3.50;;
1799;SDS011;919;48.274;12.292;2023-07-20T00:05:42;3.63;;;3.33;;
1799;SDS011;919;48.274;12.292;2023-07-20T00:08:09;2.83;;;2.63;;
1799;SDS011;919;48.274;12.292;2023-07-20T00:10:36;3.60;;;3.30;;
1799;SDS011;919;48.274;12.292;2023-07-20T00:13:03;3.23;;;3.00;;
1799;SDS011;919;48.274;12.292;2023-07-20T00:15:29;4.23;;;3.00;;
1799;SDS011;919;48.274;12.292;2023-07-20T00:17:56;3.50;;;3.20;;
1799;SDS011;919;48.274;12.292;2023-07-20T00:20:23;4.33;;;3.10;;
1799;SDS011;919;48.274;12.292;2023-07-20T00:22:51;4.60;;;3.60;;
1799;SDS011;919;48.274;12.292;2023-07-20T00:25:20;3.67;;;3.37;;
1799;SDS011;919;48.274;12.292;2023-07-20T00:27:46;7.23;;;3.30;;
1799;SDS011;919;48.274;12.292;2023-07-20T00:30:13;4.47;;;3.10;;
1799;SDS011;919;48.274;12.292;2023-07-20T00:32:41;5.00;;;3.27;;
1799;SDS011;919;48.274;12.292;2023-07-20T00:35:08;4.00;;;3.60;;
1799;SDS011;919;48.274;12.292;2023-07-20T00:37:36;4.00;;;3.33;;
1799;SDS011;919;48.274;12.292;2023-07-20T00:40:05;3.30;;;3.00;;
1799;SDS011;919;48.274;12.292;2023-07-20T00:42:32;6.27;;;3.57;;
1799;SDS011;919;48.274;12.292;2023-07-20T00:44:59;4.00;;;3.50;;
1799;SDS011;919;48.274;12.292;2023-07-20T00:47:26;4.17;;;3.40;;
1799;SDS011;919;48.274;12.292;2023-07-20T00:49:53;4.73;;;3.20;;
1799;SDS011;919;48.274;12.292;2023-07-20T00:52:20;5.00;;;3.60;;
1799;SDS011;919;48.274;12.292;2023-07-20T00:54:49;5.60;;;3.20;;
1799;SDS011;919;48.274;12.292;2023-07-20T00:57:18;8.40;;;3.40;;
1799;SDS011;919;48.274;12.292;2023-07-20T00:59:45;3.43;;;3.13;;
1799;SDS011;919;48.274;12.292;2023-07-20T01:02:11;3.53;;;3.13;;
1799;SDS011;919;48.274;12.292;2023-07-20T01:04:38;5.67;;;4.33;;
1799;SDS011;919;48.274;12.292;2023-07-20T01:07:07;4.50;;;4.10;;
1799;SDS011;919;48.274;12.292;2023-07-20T01:09:39;4.00;;;3.03;;
1799;SDS011;919;48.274;12.292;2023-07-20T01:12:12;3.33;;;3.03;;
1799;SDS011;919;48.274;12.292;2023-07-20T01:14:45;3.90;;;3.53;;
1799;SDS011;919;48.274;12.292;2023-07-20T01:17:12;6.27;;;4.03;;
1799;SDS011;919;48.274;12.292;2023-07-20T01:19:38;3.87;;;3.57;;
1799;SDS011;919;48.274;12.292;2023-07-20T01:22:09;3.90;;;3.43;;
1799;SDS011;919;48.274;12.292;2023-07-20T01:28:03;3.67;;;3.37;;
1799;SDS011;919;48.274;12.292;2023-07-20T01:33:39;4.03;;;3.73;;
1799;SDS011;919;48.274;12.292;2023-07-20T01:36:08;4.20;;;3.70;;
1799;SDS011;919;48.274;12.292;2023-07-20T01:38:36;4.27;;;3.77;;
1799;SDS011;919;48.274;12.292;2023-07-20T01:41:03;9.77;;;3.97;;
1799;SDS011;919;48.274;12.292;2023-07-20T01:43:31;4.57;;;4.17;;
1799;SDS011;919;48.274;12.292;2023-07-20T01:45:58;4.00;;;3.70;;
1799;SDS011;919;48.274;12.292;2023-07-20T01:48:26;5.00;;;4.10;;
1799;SDS011;919;48.274;12.292;2023-07-20T01:50:52;5.70;;;4.00;;
1799;SDS011;919;48.274;12.292;2023-07-20T01:53:20;4.50;;;3.70;;
1799;SDS011;919;48.274;12.292;2023-07-20T01:55:47;4.90;;;3.60;;
1799;SDS011;919;48.274;12.292;2023-07-20T01:58:13;5.93;;;3.87;;
1799;SDS011;919;48.274;12.292;2023-07-20T02:00:40;6.00;;;4.67;;
1799;SDS011;919;48.274;12.292;2023-07-20T02:03:07;6.80;;;3.50;;
1799;SDS011;919;48.274;12.292;2023-07-20T02:05:35;4.10;;;3.70;;
1799;SDS011;919;48.274;12.292;2023-07-20T02:08:02;5.03;;;3.70;;
1799;SDS011;919;48.274;12.292;2023-07-20T02:10:28;5.20;;;3.50;;
1799;SDS011;919;48.274;12.292;2023-07-20T02:12:55;3.47;;;3.20;;
1799;SDS011;919;48.274;12.292;2023-07-20T02:15:22;4.20;;;3.90;;
1799;SDS011;919;48.274;12.292;2023-07-20T02:17:49;5.13;;;3.57;;
1799;SDS011;919;48.274;12.292;2023-07-20T02:20:16;5.13;;;4.20;;
1799;SDS011;919;48.274;12.292;2023-07-20T02:22:44;4.03;;;3.70;;
1799;SDS011;919;48.274;12.292;2023-07-20T02:25:11;3.90;;;3.37;;
1799;SDS011;919;48.274;12.292;2023-07-20T02:27:38;4.77;;;3.30;;
1799;SDS011;919;48.274;12.292;2023-07-20T02:30:05;4.10;;;3.57;;
1799;SDS011;919;48.274;12.292;2023-07-20T02:32:34;4.23;;;3.83;;
1799;SDS011;919;48.274;12.292;2023-07-20T02:35:01;4.30;;;3.47;;
1799;SDS011;919;48.274;12.292;2023-07-20T02:37:29;3.47;;;3.17;;
1799;SDS011;919;48.274;12.292;2023-07-20T02:39:57;5.30;;;4.30;;
1799;SDS011;919;48.274;12.292;2023-07-20T02:42:23;3.83;;;3.17;;
1799;SDS011;919;48.274;12.292;2023-07-20T02:44:51;4.23;;;3.30;;
1799;SDS011;919;48.274;12.292;2023-07-20T02:47:17;5.20;;;4.10;;
1799;SDS011;919;48.274;12.292;2023-07-20T02:49:44;5.27;;;4.00;;
1799;SDS011;919;48.274;12.292;2023-07-20T02:52:11;4.20;;;3.80;;
1799;SDS011;919;48.274;12.292;2023-07-20T02:54:38;4.47;;;4.07;;
1799;SDS011;919;48.274;12.292;2023-07-20T02:57:06;3.50;;;3.20;;
1799;SDS011;919;48.274;12.292;2023-07-20T02:59:33;6.03;;;3.97;;
1799;SDS011;919;48.274;12.292;2023-07-20T03:01:59;9.67;;;4.63;;
1799;SDS011;919;48.274;12.292;2023-07-20T03:04:26;7.03;;;3.90;;
1799;SDS011;919;48.274;12.292;2023-07-20T03:06:53;5.07;;;4.30;;
1799;SDS011;919;48.274;12.292;2023-07-20T03:09:20;5.53;;;4.53;;
1799;SDS011;919;48.274;12.292;2023-07-20T03:11:47;7.70;;;3.80;;
1799;SDS011;919;48.274;12.292;2023-07-20T03:14:15;4.40;;;4.00;;
1799;SDS011;919;48.274;12.292;2023-07-20T03:16:42;4.70;;;4.20;;
1799;SDS011;919;48.274;12.292;2023-07-20T03:19:08;6.23;;;4.87;;
1799;SDS011;919;48.274;12.292;2023-07-20T03:21:35;5.10;;;4.60;;
1799;SDS011;919;48.274;12.292;2023-07-20T03:24:05;6.13;;;4.43;;
1799;SDS011;919;48.274;12.292;2023-07-20T03:26:32;3.93;;;3.57;;
1799;SDS011;919;48.274;12.292;2023-07-20T03:28:59;4.67;;;4.27;;
1799;SDS011;919;48.274;12.292;2023-07-20T03:31:27;4.73;;;4.23;;
1799;SDS011;919;48.274;12.292;2023-07-20T03:33:54;8.70;;;5.20;;
1799;SDS011;919;48.274;12.292;2023-07-20T03:36:21;5.73;;;4.03;;
1799;SDS011;919;48.274;12.292;2023-07-20T03:38:48;4.50;;;3.97;;
1799;SDS011;919;48.274;12.292;2023-07-20T03:41:15;5.43;;;3.47;;
1799;SDS011;919;48.274;12.292;2023-07-20T03:43:42;11.20;;;4.00;;
1799;SDS011;919;48.274;12.292;2023-07-20T03:46:08;6.57;;;5.20;;
1799;SDS011;919;48.274;12.292;2023-07-20T03:48:36;5.90;;;4.30;;
1799;SDS011;919;48.274;12.292;2023-07-20T03:51:03;4.40;;;4.03;;
1799;SDS011;919;48.274;12.292;2023-07-20T03:53:30;7.93;;;4.60;;
1799;SDS011;919;48.274;12.292;2023-07-20T03:55:57;4.33;;;3.93;;
1799;SDS011;919;48.274;12.292;2023-07-20T03:58:23;4.13;;;3.70;;
1799;SDS011;919;48.274;12.292;2023-07-20T04:00:50;5.17;;;3.77;;
1799;SDS011;919;48.274;12.292;2023-07-20T04:03:17;4.80;;;4.03;;
1799;SDS011;919;48.274;12.292;2023-07-20T04:05:46;4.40;;;4.00;;
1799;SDS011;919;48.274;12.292;2023-07-20T04:08:13;4.00;;;3.50;;
1799;SDS011;919;48.274;12.292;2023-07-20T04:10:42;3.93;;;3.53;;
1799;SDS011;919;48.274;12.292;2023-07-20T04:13:09;4.80;;;3.87;;
1799;SDS011;919;48.274;12.292;2023-07-20T04:15:36;6.53;;;4.40;;
1799;SDS011;919;48.274;12.292;2023-07-20T04:18:03;8.73;;;5.33;;
1799;SDS011;919;48.274;12.292;2023-07-20T04:20:29;4.73;;;4.23;;
1799;SDS011;919;48.274;12.292;2023-07-20T04:22:58;5.87;;;4.83;;
1799;SDS011;919;48.274;12.292;2023-07-20T04:25:24;7.10;;;3.83;;
1799;SDS011;919;48.274;12.292;2023-07-20T04:27:51;4.90;;;4.13;;
1799;SDS011;919;48.274;12.292;2023-07-20T04:30:18;6.60;;;4.33;;
1799;SDS011;919;48.274;12.292;2023-07-20T04:32:47;4.37;;;3.93;;
1799;SDS011;919;48.274;12.292;2023-07-20T04:35:16;3.90;;;3.60;;
1799;SDS011;919;48.274;12.292;2023-07-20T04:37:44;4.03;;;3.57;;
1799;SDS011;919;48.274;12.292;2023-07-20T04:40:13;3.83;;;3.53;;
1799;SDS011;919;48.274;12.292;2023-07-20T04:42:41;5.53;;;3.13;;
1799;SDS011;919;48.274;12.292;2023-07-20T04:45:08;4.20;;;3.50;;
1799;SDS011;919;48.274;12.292;2023-07-20T04:47:35;3.90;;;3.43;;
1799;SDS011;919;48.274;12.292;2023-07-20T04:50:02;7.43;;;4.57;;
1799;SDS011;919;48.274;12.292;2023-07-20T04:52:29;4.77;;;3.97;;
1799;SDS011;919;48.274;12.292;2023-07-20T04:54:56;9.37;;;3.40;;
1799;SDS011;919;48.274;12.292;2023-07-20T04:57:24;4.43;;;3.50;;
1799;SDS011;919;48.274;12.292;2023-07-20T04:59:51;5.70;;;3.43;;
1799;SDS011;919;48.274;12.292;2023-07-20T05:02:18;5.23;;;3.17;;
1799;SDS011;919;48.274;12.292;2023-07-20T05:04:45;4.43;;;2.77;;
1799;SDS011;919;48.274;12.292;2023-07-20T05:07:12;3.40;;;3.10;;
1799;SDS011;919;48.274;12.292;2023-07-20T05:09:39;3.27;;;2.97;;
1799;SDS011;919;48.274;12.292;2023-07-20T05:12:06;3.43;;;3.13;;
1799;SDS011;919;48.274;12.292;2023-07-20T05:14:34;11.03;;;3.27;;
1799;SDS011;919;48.274;12.292;2023-07-20T05:17:01;5.17;;;3.17;;
1799;SDS011;919;48.274;12.292;2023-07-20T05:19:27;2.53;;;2.33;;
1799;SDS011;919;48.274;12.292;2023-07-20T05:21:54;2.87;;;2.67;;
1799;SDS011;919;48.274;12.292;2023-07-20T05:24:21;5.53;;;2.73;;
1799;SDS011;919;48.274;12.292;2023-07-20T05:26:48;2.80;;;2.60;;
1799;SDS011;919;48.274;12.292;2023-07-20T05:29:14;3.40;;;2.70;;
1799;SDS011;919;48.274;12.292;2023-07-20T05:31:43;2.33;;;2.13;;
1799;SDS011;919;48.274;12.292;2023-07-20T05:34:09;3.30;;;2.63;;
1799;SDS011;919;48.274;12.292;2023-07-20T05:36:36;2.90;;;2.60;;
1799;SDS011;919;48.274;12.292;2023-07-20T05:39:03;5.83;;;2.30;;
1799;SDS011;919;48.274;12.292;2023-07-20T05:41:30;4.77;;;2.40;;
1799;SDS011;919;48.274;12.292;2023-07-20T05:43:56;2.17;;;2.00;;
1799;SDS011;919;48.274;12.292;2023-07-20T05:46:23;2.20;;;2.00;;
1799;SDS011;919;48.274;12.292;2023-07-20T05:48:51;11.60;;;2.37;;
1799;SDS011;919;48.274;12.292;2023-07-20T05:51:18;2.93;;;2.50;;
1799;SDS011;919;48.274;12.292;2023-07-20T05:53:45;2.43;;;2.23;;
1799;SDS011;919;48.274;12.292;2023-07-20T05:56:13;7.97;;;2.47;;
1799;SDS011;919;48.274;12.292;2023-07-20T05:58:40;4.27;;;2.47;;
1799;SDS011;919;48.274;12.292;2023-07-20T06:01:06;5.30;;;2.60;;
1799;SDS011;919;48.274;12.292;2023-07-20T06:03:33;3.17;;;1.87;;
1799;SDS011;919;48.274;12.292;2023-07-20T06:06:01;2.40;;;1.90;;
1799;SDS011;919;48.274;12.292;2023-07-20T06:08:29;1.90;;;1.80;;
1799;SDS011;919;48.274;12.292;2023-07-20T06:10:56;1.80;;;1.60;;
1799;SDS011;919;48.274;12.292;2023-07-20T06:13:22;7.73;;;2.10;;
1799;SDS011;919;48.274;12.292;2023-07-20T06:15:50;6.03;;;2.40;;
1799;SDS011;919;48.274;12.292;2023-07-20T06:18:17;2.60;;;2.20;;
1799;SDS011;919;48.274;12.292;2023-07-20T06:20:48;2.00;;;1.63;;
1799;SDS011;919;48.274;12.292;2023-07-20T06:23:17;1.83;;;1.73;;
1799;SDS011;919;48.274;12.292;2023-07-20T06:25:44;2.50;;;2.30;;
1799;SDS011;919;48.274;12.292;2023-07-20T06:28:11;2.30;;;1.77;;
1799;SDS011;919;48.274;12.292;2023-07-20T06:30:37;3.83;;;2.00;;
1799;SDS011;919;48.274;12.292;2023-07-20T06:33:04;2.40;;;1.80;;
1799;SDS011;919;48.274;12.292;2023-07-20T06:35:31;2.67;;;1.73;;
1799;SDS011;919;48.274;12.292;2023-07-20T06:37:58;1.70;;;1.60;;
1799;SDS011;919;48.274;12.292;2023-07-20T06:40:27;2.47;;;2.27;;
1799;SDS011;919;48.274;12.292;2023-07-20T06:42:53;2.37;;;2.10;;
1799;SDS011;919;48.274;12.292;2023-07-20T06:45:20;2.10;;;1.97;;
1799;SDS011;919;48.274;12.292;2023-07-20T06:47:47;3.00;;;1.90;;
1799;SDS011;919;48.274;12.292;2023-07-20T06:50:14;2.00;;;1.70;;
1799;SDS011;919;48.274;12.292;2023-07-20T06:52:40;3.20;;;1.83;;
1799;SDS011;919;48.274;12.292;2023-07-20T06:55:08;2.57;;;2.17;;
1799;SDS011;919;48.274;12.292;2023-07-20T06:57:36;3.83;;;1.80;;
1799;SDS011;919;48.274;12.292;2023-07-20T07:00:03;2.07;;;1.87;;
1799;SDS011;919;48.274;12.292;2023-07-20T07:02:31;2.53;;;1.77;;
1799;SDS011;919;48.274;12.292;2023-07-20T07:04:59;2.10;;;1.90;;
1799;SDS011;919;48.274;12.292;2023-07-20T07:07:26;2.33;;;1.90;;
1799;SDS011;919;48.274;12.292;2023-07-20T07:09:53;2.53;;;2.33;;
1799;SDS011;919;48.274;12.292;2023-07-20T07:12:19;2.33;;;2.13;;
1799;SDS011;919;48.274;12.292;2023-07-20T07:14:48;2.50;;;1.90;;
1799;SDS011;919;48.274;12.292;2023-07-20T07:17:14;3.47;;;2.10;;
1799;SDS011;919;48.274;12.292;2023-07-20T07:19:41;2.77;;;1.83;;
1799;SDS011;919;48.274;12.292;2023-07-20T07:22:09;1.70;;;1.57;;
1799;SDS011;919;48.274;12.292;2023-07-20T07:24:36;3.53;;;2.13;;
1799;SDS011;919;48.274;12.292;2023-07-20T07:27:03;2.67;;;2.17;;
1799;SDS011;919;48.274;12.292;2023-07-20T07:29:31;2.33;;;1.90;;
1799;SDS011;919;48.274;12.292;2023-07-20T07:31:59;2.00;;;1.80;;
1799;SDS011;919;48.274;12.292;2023-07-20T07:34:26;1.77;;;1.67;;
1799;SDS011;919;48.274;12.292;2023-07-20T07:36:53;4.33;;;2.00;;
1799;SDS011;919;48.274;12.292;2023-07-20T07:39:21;4.20;;;2.10;;
1799;SDS011;919;48.274;12.292;2023-07-20T07:41:49;3.90;;;2.00;;
1799;SDS011;919;48.274;12.292;2023-07-20T07:44:16;1.80;;;1.70;;
1799;SDS011;919;48.274;12.292;2023-07-20T07:46:43;1.70;;;1.60;;
1799;SDS011;919;48.274;12.292;2023-07-20T07:49:11;1.97;;;1.87;;
1799;SDS011;919;48.274;12.292;2023-07-20T07:51:38;2.30;;;2.10;;
1799;SDS011;919;48.274;12.292;2023-07-20T07:54:05;2.33;;;2.10;;
1799;SDS011;919;48.274;12.292;2023-07-20T07:56:32;2.33;;;1.80;;
1799;SDS011;919;48.274;12.292;2023-07-20T07:58:59;3.60;;;2.60;;
1799;SDS011;919;48.274;12.292;2023-07-20T08:01:25;2.83;;;1.90;;
1799;SDS011;919;48.274;12.292;2023-07-20T08:03:52;2.57;;;2.10;;
1799;SDS011;919;48.274;12.292;2023-07-20T08:06:20;3.07;;;2.13;;
1799;SDS011;919;48.274;12.292;2023-07-20T08:08:48;2.07;;;1.63;;
1799;SDS011;919;48.274;12.292;2023-07-20T08:11:15;3.83;;;1.90;;
1799;SDS011;919;48.274;12.292;2023-07-20T08:13:43;4.60;;;1.90;;
1799;SDS011;919;48.274;12.292;2023-07-20T08:16:09;1.97;;;1.70;;
1799;SDS011;919;48.274;12.292;2023-07-20T08:18:36;3.40;;;2.07;;
1799;SDS011;919;48.274;12.292;2023-07-20T08:21:03;1.73;;;1.63;;
1799;SDS011;919;48.274;12.292;2023-07-20T08:23:31;2.37;;;1.57;;
1799;SDS011;919;48.274;12.292;2023-07-20T08:25:58;2.30;;;2.10;;
1799;SDS011;919;48.274;12.292;2023-07-20T08:28:26;1.83;;;1.73;;
1799;SDS011;919;48.274;12.292;2023-07-20T08:30:54;2.30;;;1.87;;
1799;SDS011;919;48.274;12.292;2023-07-20T08:33:20;2.23;;;2.03;;
1799;SDS011;919;48.274;12.292;2023-07-20T08:35:48;2.60;;;1.57;;
1799;SDS011;919;48.274;12.292;2023-07-20T08:38:15;3.00;;;2.07;;
1799;SDS011;919;48.274;12.292;2023-07-20T08:40:43;1.73;;;1.63;;
1799;SDS011;919;48.274;12.292;2023-07-20T08:43:13;1.30;;;1.20;;
1799;SDS011;919;48.274;12.292;2023-07-20T08:45:41;6.93;;;1.90;;
1799;SDS011;919;48.274;12.292;2023-07-20T08:48:10;1.97;;;1.70;;
1799;SDS011;919;48.274;12.292;2023-07-20T08:50:38;2.43;;;2.13;;
1799;SDS011;919;48.274;12.292;2023-07-20T08:53:06;2.20;;;1.80;;
1799;SDS011;919;48.274;12.292;2023-07-20T08:55:34;4.03;;;2.73;;
1799;SDS011;919;48.274;12.292;2023-07-20T08:58:03;1.80;;;1.63;;
1799;SDS011;919;48.274;12.292;2023-07-20T09:00:34;3.10;;;1.80;;
1799;SDS011;919;48.274;12.292;2023-07-20T09:03:01;2.10;;;1.90;;
1799;SDS011;919;48.274;12.292;2023-07-20T09:05:29;2.67;;;2.27;;
1799;SDS011;919;48.274;12.292;2023-07-20T09:07:56;2.10;;;1.73;;
1799;SDS011;919;48.274;12.292;2023-07-20T09:10:23;1.67;;;1.57;;
1799;SDS011;919;48.274;12.292;2023-07-20T09:12:50;2.00;;;1.90;;
1799;SDS011;919;48.274;12.292;2023-07-20T09:15:18;2.00;;;1.67;;
1799;SDS011;919;48.274;12.292;2023-07-20T09:17:46;2.20;;;1.97;;
1799;SDS011;919;48.274;12.292;2023-07-20T09:20:14;1.90;;;1.80;;
1799;SDS011;919;48.274;12.292;2023-07-20T09:22:42;1.60;;;1.50;;
1799;SDS011;919;48.274;12.292;2023-07-20T09:25:11;2.73;;;2.30;;
1799;SDS011;919;48.274;12.292;2023-07-20T09:27:40;1.90;;;1.70;;
1799;SDS011;919;48.274;12.292;2023-07-20T09:30:08;2.53;;;2.03;;
1799;SDS011;919;48.274;12.292;2023-07-20T09:32:39;2.20;;;2.00;;
1799;SDS011;919;48.274;12.292;2023-07-20T09:35:12;1.90;;;1.70;;
1799;SDS011;919;48.274;12.292;2023-07-20T09:37:41;1.67;;;1.40;;
1799;SDS011;919;48.274;12.292;2023-07-20T09:40:14;2.20;;;1.53;;
1799;SDS011;919;48.274;12.292;2023-07-20T09:42:43;4.10;;;1.93;;
1799;SDS011;919;48.274;12.292;2023-07-20T09:45:10;1.70;;;1.60;;
1799;SDS011;919;48.274;12.292;2023-07-20T09:47:37;2.87;;;1.83;;
1799;SDS011;919;48.274;12.292;2023-07-20T09:50:06;2.10;;;2.00;;
1799;SDS011;919;48.274;12.292;2023-07-20T09:52:37;1.90;;;1.80;;
1799;SDS011;919;48.274;12.292;2023-07-20T09:55:08;2.23;;;1.80;;
1799;SDS011;919;48.274;12.292;2023-07-20T09:57:37;1.97;;;1.87;;
1799;SDS011;919;48.274;12.292;2023-07-20T10:00:05;2.70;;;2.00;;
1799;SDS011;919;48.274;12.292;2023-07-20T10:02:43;1.93;;;1.70;;
1799;SDS011;919;48.274;12.292;2023-07-20T10:05:12;2.00;;;1.90;;
1799;SDS011;919;48.274;12.292;2023-07-20T10:07:43;2.83;;;2.30;;
1799;SDS011;919;48.274;12.292;2023-07-20T10:10:14;3.03;;;2.30;;
1799;SDS011;919;48.274;12.292;2023-07-20T10:12:43;3.67;;;1.87;;
1799;SDS011;919;48.274;12.292;2023-07-20T10:15:15;1.80;;;1.70;;
1799;SDS011;919;48.274;12.292;2023-07-20T10:17:49;2.20;;;2.07;;
1799;SDS011;919;48.274;12.292;2023-07-20T10:20:24;1.93;;;1.80;;
1799;SDS011;919;48.274;12.292;2023-07-20T10:22:53;2.13;;;1.60;;
1799;SDS011;919;48.274;12.292;2023-07-20T10:25:23;1.60;;;1.40;;
1799;SDS011;919;48.274;12.292;2023-07-20T10:27:50;2.20;;;1.93;;
1799;SDS011;919;48.274;12.292;2023-07-20T10:30:18;2.73;;;2.53;;
1799;SDS011;919;48.274;12.292;2023-07-20T10:32:46;1.80;;;1.40;;
1799;SDS011;919;48.274;12.292;2023-07-20T10:35:16;2.27;;;2.07;;
1799;SDS011;919;48.274;12.292;2023-07-20T10:37:48;2.10;;;1.90;;
1799;SDS011;919;48.274;12.292;2023-07-20T10:40:27;2.27;;;2.10;;
1799;SDS011;919;48.274;12.292;2023-07-20T10:43:02;6.00;;;2.30;;
1799;SDS011;919;48.274;12.292;2023-07-20T10:45:35;1.90;;;1.80;;
1799;SDS011;919;48.274;12.292;2023-07-20T10:48:12;1.97;;;1.87;;
1799;SDS011;919;48.274;12.292;2023-07-20T10:50:42;6.43;;;2.00;;
1799;SDS011;919;48.274;12.292;2023-07-20T10:53:11;4.90;;;1.90;;
1799;SDS011;919;48.274;12.292;2023-07-20T10:55:43;2.07;;;1.97;;
1799;SDS011;919;48.274;12.292;2023-07-20T10:58:12;3.80;;;2.37;;
1799;SDS011;919;48.274;12.292;2023-07-20T11:01:00;2.00;;;1.90;;
1799;SDS011;919;48.274;12.292;2023-07-20T11:03:30;2.07;;;1.70;;
1799;SDS011;919;48.274;12.292;2023-07-20T11:05:59;1.77;;;1.67;;
1799;SDS011;919;48.274;12.292;2023-07-20T11:08:46;2.97;;;2.00;;
1799;SDS011;919;48.274;12.292;2023-07-20T11:11:23;1.97;;;1.83;;
1799;SDS011;919;48.274;12.292;2023-07-20T11:13:55;1.90;;;1.80;;
1799;SDS011;919;48.274;12.292;2023-07-20T11:16:33;2.17;;;1.80;;
1799;SDS011;919;48.274;12.292;2023-07-20T11:19:02;2.20;;;2.00;;
1799;SDS011;919;48.274;12.292;2023-07-20T11:21:35;2.30;;;2.10;;
1799;SDS011;919;48.274;12.292;2023-07-20T11:24:04;2.10;;;1.97;;
1799;SDS011;919;48.274;12.292;2023-07-20T11:26:41;2.30;;;2.10;;
1799;SDS011;919;48.274;12.292;2023-07-20T11:29:10;2.40;;;2.20;;
1799;SDS011;919;48.274;12.292;2023-07-20T11:31:38;2.80;;;2.50;;
1799;SDS011;919;48.274;12.292;2023-07-20T11:34:11;4.27;;;2.10;;
1799;SDS011;919;48.274;12.292;2023-07-20T11:36:40;2.70;;;2.17;;
1799;SDS011;919;48.274;12.292;2023-07-20T11:39:08;1.87;;;1.77;;
1799;SDS011;919;48.274;12.292;2023-07-20T11:41:36;3.27;;;2.40;;
1799;SDS011;919;48.274;12.292;2023-07-20T11:44:05;2.27;;;1.70;;
1799;SDS011;919;48.274;12.292;2023-07-20T11:46:32;2.73;;;2.00;;
1799;SDS011;919;48.274;12.292;2023-07-20T11:49:00;1.90;;;1.80;;
1799;SDS011;919;48.274;12.292;2023-07-20T11:51:29;3.33;;;2.33;;
1799;SDS011;919;48.274;12.292;2023-07-20T11:53:57;2.10;;;2.00;;
1799;SDS011;919;48.274;12.292;2023-07-20T11:56:25;2.30;;;1.60;;
1799;SDS011;919;48.274;12.292;2023-07-20T11:58:57;2.40;;;2.20;;
1799;SDS011;919;48.274;12.292;2023-07-20T12:01:26;2.60;;;1.70;;
1799;SDS011;919;48.274;12.292;2023-07-20T12:03:54;4.10;;;2.00;;
1799;SDS011;919;48.274;12.292;2023-07-20T12:06:22;2.00;;;1.90;;
1799;SDS011;919;48.274;12.292;2023-07-20T12:08:54;2.57;;;2.00;;
1799;SDS011;919;48.274;12.292;2023-07-20T12:11:33;2.30;;;1.97;;
1799;SDS011;919;48.274;12.292;2023-07-20T12:14:00;3.20;;;2.07;;
1799;SDS011;919;48.274;12.292;2023-07-20T12:16:29;2.60;;;2.40;;
1799;SDS011;919;48.274;12.292;2023-07-20T12:18:59;2.80;;;2.57;;
1799;SDS011;919;48.274;12.292;2023-07-20T12:21:27;1.90;;;1.80;;
1799;SDS011;919;48.274;12.292;2023-07-20T12:23:57;2.23;;;2.07;;
1799;SDS011;919;48.274;12.292;2023-07-20T12:26:25;3.53;;;1.73;;
1799;SDS011;919;48.274;12.292;2023-07-20T12:28:52;5.33;;;2.10;;
1799;SDS011;919;48.274;12.292;2023-07-20T12:31:19;2.27;;;2.07;;
1799;SDS011;919;48.274;12.292;2023-07-20T12:33:48;1.80;;;1.70;;
1799;SDS011;919;48.274;12.292;2023-07-20T12:36:15;2.70;;;2.50;;
1799;SDS011;919;48.274;12.292;2023-07-20T12:38:42;2.30;;;2.13;;
1799;SDS011;919;48.274;12.292;2023-07-20T12:41:12;2.87;;;2.20;;
1799;SDS011;919;48.274;12.292;2023-07-20T12:43:40;2.43;;;2.20;;
1799;SDS011;919;48.274;12.292;2023-07-20T12:46:07;2.20;;;2.00;;
1799;SDS011;919;48.274;12.292;2023-07-20T12:48:35;2.37;;;1.90;;
1799;SDS011;919;48.274;12.292;2023-07-20T12:51:03;2.27;;;1.90;;
1799;SDS011;919;48.274;12.292;2023-07-20T12:53:31;5.93;;;2.70;;
1799;SDS011;919;48.274;12.292;2023-07-20T12:56:00;3.50;;;3.20;;
1799;SDS011;919;48.274;12.292;2023-07-20T12:58:29;3.30;;;2.87;;
1799;SDS011;919;48.274;12.292;2023-07-20T13:00:56;2.53;;;2.23;;
1799;SDS011;919;48.274;12.292;2023-07-20T13:03:23;2.60;;;1.97;;
1799;SDS011;919;48.274;12.292;2023-07-20T13:05:51;3.73;;;2.13;;
1799;SDS011;919;48.274;12.292;2023-07-20T13:08:18;7.23;;;2.27;;
1799;SDS011;919;48.274;12.292;2023-07-20T13:10:45;1.70;;;1.60;;
1799;SDS011;919;48.274;12.292;2023-07-20T13:15:51;1.90;;;1.80;;
1799;SDS011;919;48.274;12.292;2023-07-20T13:18:22;2.87;;;2.23;;
1799;SDS011;919;48.274;12.292;2023-07-20T13:20:49;3.23;;;2.00;;
1799;SDS011;919;48.274;12.292;2023-07-20T13:23:16;3.50;;;3.20;;
1799;SDS011;919;48.274;12.292;2023-07-20T13:25:44;2.70;;;2.20;;
1799;SDS011;919;48.274;12.292;2023-07-20T13:28:11;5.53;;;2.13;;
1799;SDS011;919;48.274;12.292;2023-07-20T13:30:39;2.27;;;1.90;;
1799;SDS011;919;48.274;12.292;2023-07-20T13:33:09;2.53;;;2.33;;
1799;SDS011;919;48.274;12.292;2023-07-20T13:38:11;2.30;;;2.10;;
1799;SDS011;919;48.274;12.292;2023-07-20T13:40:38;2.97;;;2.70;;
1799;SDS011;919;48.274;12.292;2023-07-20T13:43:05;2.50;;;2.30;;
1799;SDS011;919;48.274;12.292;2023-07-20T13:45:33;5.40;;;2.30;;
1799;SDS011;919;48.274;12.292;2023-07-20T13:48:00;2.33;;;2.07;;
1799;SDS011;919;48.274;12.292;2023-07-20T13:50:28;2.47;;;2.27;;
1799;SDS011;919;48.274;12.292;2023-07-20T13:52:56;3.60;;;2.07;;
1799;SDS011;919;48.274;12.292;2023-07-20T13:55:22;18.50;;;3.40;;
1799;SDS011;919;48.274;12.292;2023-07-20T13:57:50;3.53;;;2.57;;
1799;SDS011;919;48.274;12.292;2023-07-20T14:00:17;3.80;;;2.60;;
1799;SDS011;919;48.274;12.292;2023-07-20T14:02:44;3.23;;;2.57;;
1799;SDS011;919;48.274;12.292;2023-07-20T14:05:10;3.00;;;2.70;;
1799;SDS011;919;48.274;12.292;2023-07-20T14:07:38;3.90;;;2.00;;
1799;SDS011;919;48.274;12.292;2023-07-20T14:10:05;3.47;;;2.00;;
1799;SDS011;919;48.274;12.292;2023-07-20T14:12:32;1.83;;;1.73;;
1799;SDS011;919;48.274;12.292;2023-07-20T14:14:59;3.30;;;2.30;;
1799;SDS011;919;48.274;12.292;2023-07-20T14:17:26;2.30;;;2.10;;
1799;SDS011;919;48.274;12.292;2023-07-20T14:19:53;2.10;;;2.00;;
1799;SDS011;919;48.274;12.292;2023-07-20T14:22:19;2.33;;;2.10;;
1799;SDS011;919;48.274;12.292;2023-07-20T14:24:48;2.67;;;2.00;;
1799;SDS011;919;48.274;12.292;2023-07-20T14:27:14;1.70;;;1.60;;
1799;SDS011;919;48.274;12.292;2023-07-20T14:29:41;2.23;;;2.03;;
1799;SDS011;919;48.274;12.292;2023-07-20T14:32:08;1.90;;;1.80;;
1799;SDS011;919;48.274;12.292;2023-07-20T14:34:35;2.20;;;2.00;;
1799;SDS011;919;48.274;12.292;2023-07-20T14:37:02;4.40;;;2.23;;
1799;SDS011;919;48.274;12.292;2023-07-20T14:39:29;2.27;;;2.07;;
1799;SDS011;919;48.274;12.292;2023-07-20T14:41:57;1.70;;;1.60;;
1799;SDS011;919;48.274;12.292;2023-07-20T14:44:24;2.07;;;1.87;;
1799;SDS011;919;48.274;12.292;2023-07-20T14:46:51;2.63;;;2.07;;
1799;SDS011;919;48.274;12.292;2023-07-20T14:49:17;2.23;;;2.00;;
1799;SDS011;919;48.274;12.292;2023-07-20T14:51:44;4.47;;;2.20;;
1799;SDS011;919;48.274;12.292;2023-07-20T14:54:12;5.80;;;2.20;;
1799;SDS011;919;48.274;12.292;2023-07-20T14:56:38;2.00;;;1.83;;
1799;SDS011;919;48.274;12.292;2023-07-20T14:59:15;2.27;;;2.07;;
1799;SDS011;919;48.274;12.292;2023-07-20T15:01:43;2.37;;;2.17;;
1799;SDS011;919;48.274;12.292;2023-07-20T15:04:11;3.30;;;2.00;;
1799;SDS011;919;48.274;12.292;2023-07-20T15:06:37;2.93;;;2.10;;
1799;SDS011;919;48.274;12.292;2023-07-20T15:09:04;1.87;;;1.67;;
1799;SDS011;919;48.274;12.292;2023-07-20T15:11:31;2.40;;;1.47;;
1799;SDS011;919;48.274;12.292;2023-07-20T15:13:57;2.30;;;2.10;;
1799;SDS011;919;48.274;12.292;2023-07-20T15:16:26;4.97;;;2.10;;
1799;SDS011;919;48.274;12.292;2023-07-20T15:18:52;2.53;;;1.80;;
1799;SDS011;919;48.274;12.292;2023-07-20T15:21:19;2.67;;;2.10;;
1799;SDS011;919;48.274;12.292;2023-07-20T15:23:47;3.67;;;1.77;;
1799;SDS011;919;48.274;12.292;2023-07-20T15:26:14;1.90;;;1.70;;
1799;SDS011;919;48.274;12.292;2023-07-20T15:28:42;3.93;;;2.00;;
1799;SDS011;919;48.274;12.292;2023-07-20T15:31:08;4.57;;;1.60;;